Airfield :
LOGIN :

Register | Disclaimer

   EN    FR    IT 

 










Legend :    VFR   Marginal VFR   IFR   Intensive IFR   Very Intensive IFR
Visi :
Ceiling :
>= 8 km
>= 3000ft
5 to 8 km
1000 to 3000 ft
1500m to 5 km
500 to 1000 ft
800 to 1500m
200 to 500 ft
< 800m
< 200 ft
Symbols :   Thunderstorms  Fog  Heavy snow  Heavy precipitations  Wind > 20 kt
SIGMETs :     Misc.  Thunderstorms  Icing  Turbulence  Mountain Waves  Volcanic Ashes






- Airport Elevation : 239 ft
- IATA code : VRN


LIPX - Villafranca Int. Verona

CURRENT METAR :
  • 271450Z 25004KT 9999 FEW090 12/M11 Q1006

EXPIRED METARs :
  • 271420Z 23006KT 9999 SCT090 12/M09 Q1007
  • 271350Z 22007KT 9999 FEW090 12/M10 Q1007
  • 271320Z 23007KT 180V260 CAVOK 12/M10 Q1007
  • 271250Z 26005KT 210V300 CAVOK 12/M08 Q1008
  • 271220Z 27006KT CAVOK 12/M07 Q1009

TAF TAF LIPX
Valid from the 27 at 15:00 until the 28 at 00:00 UTC


271400Z 2715/2724 25007KT CAVOK



MET'MAP, your aeronautical weather chart ! - Copyright ORBIFLY December 2007 - Disclaimer

ORBIFLY MET'MAP TEAM :

Programming & Development : Alexandra Zaïnal
Concept & original design : Baudouin d'Aumeries
Assistance for programming : Marc-Olivier Méhu
Technical & hardware support : Manuel Goepfert

Contact : metmap@orbifly.com




SOURCES & CREDITS :

   NOAA